Time;durP1;ratioP1;P1;durP2;ratioP2;P2;SDS_P1;SDS_P2;PMS_P1;PMS_P2;Temp;Humidity;BMP_temperature;BMP_pressure;BME280_temperature;BME280_humidity;BME280_pressure;Samples;Min_cycle;Max_cycle;Signal;HPM_P1;HPM_P2
2021/09/22 00:00:05;;;;;;;;;7.00;7.00;;;;;24.36;48.04;101181.12;146607;612;46019;-72
2021/09/22 00:02:44;;;;;;;;;10.75;8.00;;;;;24.39;47.91;101178.47;146605;582;46049;-73
2021/09/22 00:05:18;;;;;;;;;7.25;7.25;;;;;24.46;47.79;101184.72;146607;585;46018;-73
2021/09/22 00:07:52;;;;;;;;;6.75;6.75;;;;;24.50;48.20;101188.25;146606;567;46018;-72
2021/09/22 00:10:27;;;;;;;;;8.00;8.00;;;;;24.49;48.05;101191.78;146607;564;46018;-77
2021/09/22 00:13:00;;;;;;;;;7.00;7.00;;;;;24.48;48.40;101190.88;146606;598;46044;-72
2021/09/22 00:15:35;;;;;;;;;9.00;8.00;;;;;24.47;48.53;101194.41;146604;569;46019;-73
2021/09/22 00:18:09;;;;;;;;;8.00;6.75;;;;;24.49;48.40;101200.63;146607;604;46010;-73
2021/09/22 00:20:44;;;;;;;;;8.75;8.75;;;;;24.52;48.51;101192.66;146607;675;46018;-73
2021/09/22 00:23:17;;;;;;;;;10.00;10.00;;;;;24.54;49.82;101196.19;146606;584;46010;-73
2021/09/22 00:25:51;;;;;;;;;6.75;6.00;;;;;24.49;48.91;101205.03;146605;651;46018;-69
2021/09/22 00:28:25;;;;;;;;;9.00;8.75;;;;;24.37;48.78;101198.78;146605;677;46011;-70
2021/09/22 00:31:00;;;;;;;;;7.50;7.00;;;;;24.32;48.80;101216.44;146607;691;47008;-69
2021/09/22 00:33:33;;;;;;;;;8.25;8.25;;;;;24.30;49.47;101215.56;146606;577;46018;-70
2021/09/22 00:36:08;;;;;;;;;7.50;6.50;;;;;24.24;49.59;101206.69;146608;643;46019;-73
2021/09/22 00:38:41;;;;;;;;;8.75;7.75;;;;;24.16;49.82;101212.87;146604;638;46019;-70
2021/09/22 00:41:15;;;;;;;;;8.75;8.00;;;;;24.13;50.31;101204.91;146604;578;47008;-69
2021/09/22 00:43:49;;;;;;;;;9.00;7.50;;;;;24.15;49.58;101204.94;146605;571;46020;-69
2021/09/22 00:46:23;;;;;;;;;9.67;8.33;;;;;24.17;49.80;101200.50;146610;646;46018;-69
2021/09/22 00:48:57;;;;;;;;;8.75;8.00;;;;;24.27;49.65;101202.31;146605;621;46022;-70
2021/09/22 00:51:32;;;;;;;;;8.00;6.75;;;;;24.34;50.76;101189.97;146609;714;46008;-69
2021/09/22 00:54:05;;;;;;;;;10.25;8.00;;;;;24.42;49.00;101191.78;146604;589;46018;-69
2021/09/22 00:56:40;;;;;;;;;7.50;6.75;;;;;24.49;49.11;101189.13;146607;628;47010;-69
2021/09/22 00:59:14;;;;;;;;;8.50;6.75;;;;;24.53;49.03;101182.94;146604;577;46019;-75
2021/09/22 01:01:50;;;;;;;;;5.25;5.25;;;;;24.55;49.05;101175.84;146606;630;46018;-73
2021/09/22 01:04:23;;;;;;;;;7.33;5.33;;;;;24.58;48.27;101173.22;146606;596;46010;-70
2021/09/22 01:07:01;;;;;;;;;9.33;6.33;;;;;24.62;48.32;101172.34;146606;622;46911;-72
2021/09/22 01:09:35;;;;;;;;;7.00;6.00;;;;;24.64;48.20;101168.81;146605;654;46018;-69
2021/09/22 01:12:09;;;;;;;;;7.00;6.00;;;;;24.64;48.68;101166.16;146607;621;46018;-72
2021/09/22 01:14:44;;;;;;;;;6.00;6.00;;;;;24.64;48.35;101165.25;146604;656;46917;-72
2021/09/22 01:17:26;;;;;;;;;7.50;6.75;;;;;24.62;47.77;101167.06;146609;656;46008;-73
2021/09/22 01:20:04;;;;;;;;;10.50;8.00;;;;;24.62;47.61;101169.69;146605;639;46018;-73
2021/09/22 01:22:38;;;;;;;;;6.00;5.33;;;;;24.62;47.43;101164.41;146608;616;46008;-74
2021/09/22 01:25:16;;;;;;;;;6.75;5.75;;;;;24.64;47.48;101167.91;146606;702;46029;-72
2021/09/22 01:27:54;;;;;;;;;8.25;8.25;;;;;24.71;47.11;101169.69;146609;659;46019;-74
2021/09/22 01:30:28;;;;;;;;;7.00;5.75;;;;;24.84;47.83;101175.87;146604;610;47021;-73
2021/09/22 01:33:06;;;;;;;;;4.33;4.33;;;;;24.97;48.43;101171.47;146606;624;46018;-74
2021/09/22 01:35:43;;;;;;;;;4.33;4.33;;;;;25.05;48.23;101165.25;146606;666;46019;-74
2021/09/22 01:38:24;;;;;;;;;6.00;5.00;;;;;25.11;47.48;101177.66;146608;586;46008;-74
2021/09/22 01:41:05;;;;;;;;;6.75;5.00;;;;;25.16;47.96;101165.25;146607;595;46018;-77
2021/09/22 01:43:43;;;;;;;;;6.33;4.67;;;;;25.19;47.44;101162.59;146608;601;46019;-69
2021/09/22 01:46:17;;;;;;;;;6.50;6.50;;;;;25.20;48.04;101161.72;146603;604;46018;-69
2021/09/22 01:48:51;;;;;;;;;6.33;6.33;;;;;25.20;47.77;101148.44;146611;632;45018;-69
2021/09/22 01:51:25;;;;;;;;;5.50;5.50;;;;;25.23;47.49;101148.44;146607;571;46010;-69
2021/09/22 01:53:59;;;;;;;;;5.00;5.00;;;;;25.25;47.68;101146.66;146611;589;46008;-71
2021/09/22 01:56:33;;;;;;;;;6.25;6.00;;;;;25.26;47.44;101148.44;146605;569;46019;-70
2021/09/22 01:59:07;;;;;;;;;6.00;6.00;;;;;25.28;47.89;101151.09;146606;615;46018;-68
2021/09/22 02:01:40;;;;;;;;;5.67;5.67;;;;;25.25;48.68;101153.75;146606;570;46018;-70
2021/09/22 02:04:14;;;;;;;;;10.50;8.50;;;;;25.24;48.86;101155.53;146606;577;46018;-70
2021/09/22 02:06:48;;;;;;;;;7.00;6.67;;;;;25.21;48.44;101155.53;146606;591;46018;-70
2021/09/22 02:09:22;;;;;;;;;7.00;7.00;;;;;25.20;48.89;101153.75;146610;563;46008;-70
2021/09/22 02:11:56;;;;;;;;;7.00;5.00;;;;;25.15;48.94;101158.19;146609;592;45916;-70
2021/09/22 02:14:30;;;;;;;;;6.00;4.75;;;;;25.14;48.07;101155.53;146610;593;46008;-70
2021/09/22 02:17:06;;;;;;;;;5.00;4.67;;;;;25.12;49.72;101159.09;146607;584;46916;-70
2021/09/22 02:19:40;;;;;;;;;8.00;7.00;;;;;25.02;50.30;101141.38;146610;564;47008;-70
2021/09/22 02:22:15;;;;;;;;;6.00;6.00;;;;;24.92;49.24;101155.53;146606;621;46018;-70
2021/09/22 02:24:49;;;;;;;;;6.67;6.00;;;;;24.89;49.44;101153.78;146607;579;46018;-70
2021/09/22 02:27:23;;;;;;;;;7.00;6.67;;;;;24.88;50.12;101161.72;146608;573;45916;-70
2021/09/22 02:29:57;;;;;;;;;4.00;4.00;;;;;24.88;49.52;101159.97;146610;682;46008;-71
2021/09/22 02:32:31;;;;;;;;;7.33;7.00;;;;;24.91;49.50;101168.81;146604;617;46018;-70
2021/09/22 02:35:05;;;;;;;;;8.00;8.00;;;;;24.91;49.42;101166.16;146608;600;46019;-70
2021/09/22 02:37:39;;;;;;;;;5.50;5.50;;;;;24.92;48.94;101174.09;146604;635;46010;-71
2021/09/22 02:40:17;;;;;;;;;7.67;6.33;;;;;24.94;48.70;101174.12;146608;570;46018;-69
2021/09/22 02:42:51;;;;;;;;;9.67;8.33;;;;;24.94;48.83;101174.12;146608;588;46010;-70
2021/09/22 02:45:25;;;;;;;;;6.00;6.00;;;;;24.96;49.14;101178.53;146609;569;47008;-70
2021/09/22 02:48:00;;;;;;;;;4.67;4.67;;;;;24.99;49.52;101180.31;146606;615;46018;-70
2021/09/22 02:50:34;;;;;;;;;4.67;4.67;;;;;25.00;48.85;101177.62;146606;625;46010;-71
2021/09/22 02:53:08;;;;;;;;;6.33;6.33;;;;;25.03;48.92;101172.34;146607;630;46018;-71
2021/09/22 02:55:42;;;;;;;;;9.33;6.33;;;;;25.06;49.07;101169.69;146608;625;46008;-74
2021/09/22 02:58:16;;;;;;;;;7.00;5.67;;;;;25.04;49.16;101157.28;146605;654;46019;-74
2021/09/22 03:00:50;;;;;;;;;5.00;5.00;;;;;25.02;49.15;101167.03;146609;593;45020;-73
2021/09/22 03:03:24;;;;;;;;;6.33;5.00;;;;;25.01;49.32;101165.25;146607;587;46011;-73
2021/09/22 03:05:58;;;;;;;;;6.33;5.00;;;;;24.98;49.05;101166.13;146608;564;46018;-73
2021/09/22 03:08:32;;;;;;;;;7.00;6.00;;;;;25.00;49.18;101174.09;146607;595;46018;-73
2021/09/22 03:11:08;;;;;;;;;7.00;7.00;;;;;25.02;48.70;101177.66;146607;566;46018;-73
2021/09/22 03:13:43;;;;;;;;;8.67;6.33;;;;;25.06;49.00;101179.41;146608;577;45023;-71
2021/09/22 03:16:18;;;;;;;;;5.67;5.67;;;;;25.01;48.85;101179.41;146606;565;46010;-72
2021/09/22 03:18:51;;;;;;;;;7.67;6.00;;;;;24.93;49.49;101170.59;146609;564;46010;-72
2021/09/22 03:21:25;;;;;;;;;7.00;6.33;;;;;24.88;49.25;101167.03;146609;630;46018;-72
2021/09/22 03:24:00;;;;;;;;;6.33;6.33;;;;;24.82;49.76;101170.56;146605;563;46018;-73
2021/09/22 03:26:34;;;;;;;;;7.33;6.33;;;;;24.79;49.59;101180.31;146610;572;46019;-68
2021/09/22 03:29:10;;;;;;;;;6.00;5.00;;;;;23.93;50.16;101037.09;146608;564;46010;-67
2021/09/22 03:31:44;;;;;;;;;7.67;7.00;;;;;24.75;49.62;101189.16;146609;644;46018;-68
2021/09/22 03:34:18;;;;;;;;;5.00;5.00;;;;;24.77;49.64;101182.09;146606;631;45917;-70
2021/09/22 03:36:52;;;;;;;;;6.00;6.00;;;;;24.80;49.14;101185.63;146609;564;45018;-70
2021/09/22 03:39:26;;;;;;;;;8.00;7.00;;;;;24.84;49.19;101182.06;146607;579;46018;-70
2021/09/22 03:42:00;;;;;;;;;6.67;5.67;;;;;24.86;49.76;101174.12;146610;572;46008;-70
2021/09/22 03:44:34;;;;;;;;;5.00;5.00;;;;;24.84;49.38;101174.12;146607;578;47010;-69
2021/09/22 03:47:08;;;;;;;;;5.67;5.00;;;;;24.84;49.36;101167.94;146607;653;47008;-70
2021/09/22 03:49:42;;;;;;;;;8.33;7.00;;;;;24.79;51.29;101169.69;146605;627;46019;-70
2021/09/22 03:52:19;;;;;;;;;9.33;7.00;;;;;24.56;50.35;101167.91;146610;577;45020;-69
2021/09/22 03:54:53;;;;;;;;;7.33;6.67;;;;;24.32;51.67;101168.72;146606;569;46010;-69
2021/09/22 03:57:27;;;;;;;;;6.67;6.00;;;;;24.13;51.47;101164.28;146608;667;46019;-69
2021/09/22 04:00:01;;;;;;;;;6.00;6.00;;;;;23.93;51.87;101162.47;146605;569;47916;-69
2021/09/22 04:02:35;;;;;;;;;6.67;6.33;;;;;23.81;51.49;101166.84;146610;585;46008;-69
2021/09/22 04:05:10;;;;;;;;;6.33;6.00;;;;;23.76;52.43;101177.41;146604;610;46019;-70
2021/09/22 04:07:44;;;;;;;;;6.00;6.00;;;;;23.74;51.66;101173.88;146605;641;46018;-69
2021/09/22 04:10:18;;;;;;;;;7.67;7.67;;;;;23.76;51.65;101173.88;146602;655;46027;-68
2021/09/22 04:12:52;;;;;;;;;8.50;8.50;;;;;23.77;51.84;101172.97;146605;643;47010;-69
2021/09/22 04:15:26;;;;;;;;;10.00;9.67;;;;;23.76;52.47;101174.75;146603;595;46022;-71
2021/09/22 04:18:00;;;;;;;;;6.25;6.00;;;;;23.70;52.54;101174.72;146608;695;46019;-73
2021/09/22 04:20:34;;;;;;;;;8.33;8.33;;;;;23.59;53.13;101179.06;146607;613;46029;-73
2021/09/22 04:23:08;;;;;;;;;8.67;8.00;;;;;23.47;52.75;101174.59;146609;602;46018;-73
2021/09/22 04:25:42;;;;;;;;;8.25;7.25;;;;;23.36;52.99;101169.22;146599;615;47010;-70
2021/09/22 04:28:16;;;;;;;;;7.25;7.25;;;;;23.33;52.69;101173.59;146605;586;46027;-72
2021/09/22 04:30:50;;;;;;;;;7.67;7.33;;;;;23.36;52.58;101174.50;146604;587;47010;-72
2021/09/22 04:33:24;;;;;;;;;11.75;7.50;;;;;23.40;54.29;101172.78;146605;630;45020;-70
2021/09/22 04:35:58;;;;;;;;;5.67;5.67;;;;;23.35;53.40;101172.75;146607;670;46916;-78
2021/09/22 04:38:34;;;;;;;;;6.67;6.67;;;;;23.26;53.72;101183.28;146610;602;46018;-78
2021/09/22 04:41:08;;;;;;;;;9.00;9.00;;;;;23.14;55.10;101178.78;146603;578;46019;-79
2021/09/22 04:43:41;;;;;;;;;11.00;7.75;;;;;23.00;54.75;101176.03;146604;564;46018;-74
2021/09/22 04:46:16;;;;;;;;;8.50;8.50;;;;;22.92;55.52;101180.34;146605;581;46018;-74
2021/09/22 04:48:50;;;;;;;;;8.00;8.00;;;;;22.88;55.45;101180.31;146608;613;46019;-74
2021/09/22 04:51:56;;;;;;;;;11.67;8.00;;;;;22.86;54.33;101175.00;146602;623;46018;-74
2021/09/22 04:54:31;;;;;;;;;9.00;8.50;;;;;22.86;55.79;101172.37;146609;715;46008;-74
2021/09/22 04:57:04;;;;;;;;;8.50;6.00;;;;;22.83;55.66;101172.34;146606;667;45023;-74
2021/09/22 04:59:38;;;;;;;;;9.25;8.25;;;;;22.86;55.61;101176.78;146605;623;46018;-74
2021/09/22 05:02:12;;;;;;;;;8.00;8.00;;;;;22.89;54.23;101171.50;146607;564;46018;-75
2021/09/22 05:04:46;;;;;;;;;9.25;7.50;;;;;22.98;54.31;101177.78;146605;676;46018;-76
2021/09/22 05:07:20;;;;;;;;;6.00;5.25;;;;;23.07;54.20;101176.09;146603;651;46018;-75
2021/09/22 05:09:54;;;;;;;;;7.00;6.00;;;;;23.20;53.49;101168.22;146606;645;46018;-76
2021/09/22 05:12:28;;;;;;;;;8.25;8.25;;;;;23.62;53.12;101176.44;146604;570;47917;-76
2021/09/22 05:15:02;;;;;;;;;10.25;6.50;;;;;24.31;52.59;101171.41;146607;648;46018;-76
2021/09/22 05:17:36;;;;;;;;;5.00;5.00;;;;;24.68;51.26;101121.97;146605;596;46018;-76
2021/09/22 05:20:11;;;;;;;;;8.75;7.25;;;;;25.49;49.43;101166.09;146608;616;46018;-76
2021/09/22 05:22:45;;;;;;;;;8.67;7.00;;;;;25.97;47.76;101169.44;146607;591;46018;-75
2021/09/22 05:25:19;;;;;;;;;10.50;10.25;;;;;26.36;46.03;101168.34;146607;615;46019;-76
2021/09/22 05:27:53;;;;;;;;;12.00;10.50;;;;;26.68;45.02;101168.13;146605;682;46018;-76
2021/09/22 05:30:27;;;;;;;;;13.50;12.75;;;;;26.95;44.32;101164.34;146609;595;46010;-76
2021/09/22 05:33:01;;;;;;;;;12.75;12.00;;;;;27.14;44.08;101167.75;146604;671;46019;-76
2021/09/22 05:35:35;;;;;;;;;11.00;10.00;;;;;27.30;43.16;101167.59;146609;708;46008;-77
2021/09/22 05:38:10;;;;;;;;;10.00;9.00;;;;;27.38;44.21;101160.38;146605;658;46018;-77
2021/09/22 05:40:44;;;;;;;;;9.67;9.67;;;;;27.41;43.66;101160.34;146608;637;46018;-77
2021/09/22 05:43:18;;;;;;;;;11.25;10.00;;;;;27.44;43.49;101157.66;146605;686;46018;-77
2021/09/22 05:45:51;;;;;;;;;12.50;9.75;;;;;27.44;42.57;101162.97;146609;600;45018;-78
2021/09/22 05:48:25;;;;;;;;;13.50;12.50;;;;;27.43;42.16;101157.69;146605;652;46487;-80
2021/09/22 05:50:59;;;;;;;;;13.75;11.75;;;;;27.38;42.09;101160.38;146607;649;46008;-79
2021/09/22 05:53:33;;;;;;;;;11.50;11.00;;;;;27.30;43.01;101149.81;146603;572;46018;-79
2021/09/22 05:56:08;;;;;;;;;11.50;11.00;;;;;27.10;42.76;101166.00;146605;595;46019;-81
2021/09/22 05:58:42;;;;;;;;;11.00;10.25;;;;;26.85;43.11;101159.09;146603;717;46018;-80
2021/09/22 06:01:16;;;;;;;;;13.75;12.00;;;;;26.61;43.67;101157.56;146608;652;46019;-80
2021/09/22 06:03:50;;;;;;;;;11.50;9.75;;;;;26.49;44.28;101155.87;146605;606;46019;-80
2021/09/22 06:06:24;;;;;;;;;13.50;11.75;;;;;26.47;44.42;101161.16;146607;713;46008;-74
2021/09/22 06:08:58;;;;;;;;;10.50;9.50;;;;;26.48;44.24;101165.63;146601;578;46018;-84
2021/09/22 06:11:32;;;;;;;;;13.50;12.50;;;;;26.48;44.39;101162.97;146607;623;47008;-85
2021/09/22 06:14:06;;;;;;;;;13.33;12.33;;;;;26.55;44.31;101166.47;146606;593;46018;-85
2021/09/22 06:16:39;;;;;;;;;8.75;8.25;;;;;26.64;43.75;101165.53;146605;604;46019;-84
2021/09/22 06:19:13;;;;;;;;;11.25;11.00;;;;;26.75;44.11;101170.75;146606;563;46010;-86
2021/09/22 06:21:47;;;;;;;;;10.75;10.75;;;;;26.13;43.89;101056.84;146609;570;46018;-77
2021/09/22 06:24:21;;;;;;;;;9.25;9.25;;;;;26.97;43.87;101174.97;146604;667;47916;-83
2021/09/22 06:26:55;;;;;;;;;9.50;9.00;;;;;27.06;43.74;101172.22;146607;619;46010;-83
2021/09/22 06:29:29;;;;;;;;;11.25;9.25;;;;;27.12;43.70;101171.28;146609;605;46018;-76
2021/09/22 06:32:04;;;;;;;;;9.00;8.00;;;;;27.24;43.39;101180.97;146608;570;45020;-80
2021/09/22 06:34:38;;;;;;;;;14.50;12.25;;;;;27.34;42.58;101182.63;146605;718;46018;-80
2021/09/22 06:37:12;;;;;;;;;11.00;10.50;;;;;27.26;42.05;101176.47;146609;653;46018;-83
2021/09/22 06:39:46;;;;;;;;;10.75;9.00;;;;;27.03;42.94;101182.00;146606;700;46019;-83
2021/09/22 06:42:20;;;;;;;;;10.50;10.25;;;;;26.78;43.07;101179.56;146606;661;46018;-84
2021/09/22 06:44:54;;;;;;;;;12.00;9.50;;;;;26.57;43.68;101182.41;146608;582;46010;-83
2021/09/22 06:47:28;;;;;;;;;9.00;8.75;;;;;26.40;44.62;101190.47;146608;590;46028;-82
2021/09/22 06:50:02;;;;;;;;;11.50;9.75;;;;;26.29;44.81;101186.97;146605;575;46018;-82
2021/09/22 06:52:36;;;;;;;;;14.25;11.00;;;;;26.24;44.82;101187.91;146608;569;46018;-82
2021/09/22 06:55:11;;;;;;;;;14.00;11.25;;;;;26.29;44.82;101184.31;146606;583;46019;-82
2021/09/22 06:57:45;;;;;;;;;10.50;10.25;;;;;26.35;45.01;101186.94;146609;576;46008;-83
2021/09/22 07:00:19;;;;;;;;;11.00;10.50;;;;;26.42;45.28;101184.25;146605;627;46018;-83
2021/09/22 07:02:53;;;;;;;;;10.75;9.50;;;;;26.53;44.65;101186.84;146607;695;46018;-83
2021/09/22 07:05:27;;;;;;;;;9.50;9.50;;;;;26.65;44.62;101186.78;146604;598;46010;-82
2021/09/22 07:08:01;;;;;;;;;9.00;8.50;;;;;26.87;44.74;101186.59;146603;670;47010;-82
2021/09/22 07:10:36;;;;;;;;;8.00;8.00;;;;;27.13;43.57;101184.59;146606;574;46021;-82
2021/09/22 07:13:10;;;;;;;;;10.00;9.00;;;;;27.35;43.00;101185.28;146607;599;46018;-83
2021/09/22 07:15:44;;;;;;;;;10.75;10.00;;;;;27.54;43.77;101185.06;146606;637;46029;-84
2021/09/22 07:18:21;;;;;;;;;9.25;7.75;;;;;27.66;43.54;101184.91;146609;654;46008;-82
2021/09/22 07:20:55;;;;;;;;;10.25;9.00;;;;;27.82;43.36;101189.22;146604;575;47020;-82
2021/09/22 07:23:29;;;;;;;;;9.00;7.75;;;;;27.86;43.93;101187.38;146607;592;46019;-82
2021/09/22 07:26:03;;;;;;;;;11.25;9.00;;;;;27.74;44.63;101192.81;146605;692;46018;-84
2021/09/22 07:28:38;;;;;;;;;16.25;12.25;;;;;27.56;45.73;101180.59;146608;661;46010;-83
2021/09/22 07:31:13;;;;;;;;;11.25;9.75;;;;;27.49;45.45;101190.44;146603;651;46019;-84
2021/09/22 07:33:47;;;;;;;;;9.25;9.25;;;;;27.42;44.87;101180.78;146606;644;46018;-83
2021/09/22 07:36:21;;;;;;;;;10.00;9.25;;;;;27.40;45.15;101183.44;146604;584;46018;-82
2021/09/22 07:38:55;;;;;;;;;9.25;9.25;;;;;27.44;45.67;101176.28;146608;633;46008;-82
2021/09/22 07:41:29;;;;;;;;;9.00;9.00;;;;;27.52;45.45;101177.09;146608;570;45021;-82
2021/09/22 07:44:03;;;;;;;;;9.00;9.00;;;;;27.68;44.78;101176.91;146604;629;46008;-82
2021/09/22 07:46:37;;;;;;;;;10.75;8.25;;;;;27.80;45.04;101174.12;146604;587;46018;-84
2021/09/22 07:49:10;;;;;;;;;10.50;10.00;;;;;27.91;45.01;101158.87;146609;681;46018;-82
2021/09/22 07:51:45;;;;;;;;;8.00;8.00;;;;;28.18;44.25;101165.59;146605;583;47011;-82
2021/09/22 07:54:18;;;;;;;;;9.25;8.00;;;;;28.51;43.73;101171.38;146608;641;46008;-82
2021/09/22 07:56:52;;;;;;;;;9.50;7.75;;;;;28.77;42.84;101166.47;146604;587;46018;-83
2021/09/22 07:59:26;;;;;;;;;8.25;8.00;;;;;28.90;42.20;101169.81;146606;607;46027;-84
2021/09/22 08:02:04;;;;;;;;;7.75;7.75;;;;;29.00;41.66;101162.53;146607;591;46010;-84
2021/09/22 08:04:38;;;;;;;;;9.00;9.00;;;;;28.99;41.92;101158.97;146611;584;45018;-82
2021/09/22 08:07:12;;;;;;;;;8.00;8.00;;;;;28.94;41.26;101163.53;146607;564;46010;-85
2021/09/22 08:09:46;;;;;;;;;7.67;7.67;;;;;28.87;42.15;101155.66;146607;622;46018;-82
2021/09/22 08:12:20;;;;;;;;;6.00;4.33;;;;;28.84;41.49;101161.91;146605;569;46036;-84
2021/09/22 08:14:54;;;;;;;;;6.00;5.67;;;;;28.83;41.60;101152.16;146607;565;46018;-86
2021/09/22 08:17:28;;;;;;;;;5.33;5.00;;;;;28.79;41.15;101147.78;146609;577;46010;-83
2021/09/22 08:20:02;;;;;;;;;6.00;6.00;;;;;28.73;41.96;101146.09;146609;586;46018;-85
2021/09/22 08:22:36;;;;;;;;;7.00;7.00;;;;;28.72;41.56;101143.44;146604;581;46019;-86
2021/09/22 08:25:10;;;;;;;;;6.00;6.00;;;;;28.05;41.23;101017.41;146607;599;46018;-82
2021/09/22 08:27:45;;;;;;;;;5.00;5.00;;;;;28.81;41.21;101134.41;146605;625;46018;-87
2021/09/22 08:30:19;;;;;;;;;4.33;4.33;;;;;28.76;41.26;101119.38;146609;639;46018;-84
2021/09/22 08:32:53;;;;;;;;;5.00;4.25;;;;;28.64;41.55;101134.72;146605;671;46018;-82
2021/09/22 08:35:29;;;;;;;;;5.75;5.00;;;;;28.55;41.54;101133.06;146605;680;47008;-84
2021/09/22 08:38:10;;;;;;;;;8.67;6.67;;;;;28.53;41.38;101122.41;146604;627;47018;-84
2021/09/22 08:40:44;;;;;;;;;5.33;4.33;;;;;28.49;42.10;101111.81;146607;654;46018;-85
2021/09/22 08:43:19;;;;;;;;;6.67;5.67;;;;;28.51;42.19;101108.22;146608;650;46010;-82
2021/09/22 08:45:53;;;;;;;;;4.67;4.67;;;;;28.60;41.42;101107.19;146608;581;47008;-83
2021/09/22 08:48:27;;;;;;;;;8.00;6.67;;;;;28.68;41.71;101097.25;146606;596;46018;-84
2021/09/22 08:51:01;;;;;;;;;7.00;6.00;;;;;28.74;41.55;101094.47;146604;604;46018;-85
2021/09/22 08:53:35;;;;;;;;;8.00;7.00;;;;;28.82;41.38;101101.47;146599;569;48010;-83
2021/09/22 08:56:09;;;;;;;;;6.75;6.75;;;;;28.80;41.40;101101.50;146602;665;46018;-83
2021/09/22 08:58:44;;;;;;;;;7.50;6.25;;;;;28.57;41.54;101103.69;146605;588;47010;-85
2021/09/22 09:01:21;;;;;;;;;7.00;7.00;;;;;28.27;41.62;101113.94;146607;582;46018;-84
2021/09/22 09:03:54;;;;;;;;;9.33;8.00;;;;;27.89;42.60;101104.72;146605;670;46018;-85
2021/09/22 09:06:34;;;;;;;;;8.33;8.33;;;;;27.57;43.60;101094.44;146607;570;46018;-84
2021/09/22 09:09:09;;;;;;;;;4.33;4.33;;;;;27.45;43.81;101094.63;146606;656;46018;-85
2021/09/22 09:11:45;;;;;;;;;8.25;7.00;;;;;27.35;43.96;101110.72;146606;641;46018;-84
2021/09/22 09:14:19;;;;;;;;;7.00;7.00;;;;;27.20;43.86;101107.34;146607;688;45917;-84
2021/09/22 09:16:53;;;;;;;;;5.00;4.00;;;;;26.99;44.54;101098.66;146606;565;47018;-83
2021/09/22 09:19:28;;;;;;;;;7.67;7.67;;;;;26.96;45.29;101090.72;146605;591;46018;-86
2021/09/22 09:22:12;;;;;;;;;8.00;8.00;;;;;27.12;45.82;101086.97;146608;665;46019;-86
2021/09/22 09:24:51;;;;;;;;;8.33;8.33;;;;;27.40;43.63;101094.69;146603;588;46022;-83
2021/09/22 09:27:43;;;;;;;;;8.00;7.00;;;;;27.63;43.82;101099.69;146608;569;46018;-84
2021/09/22 09:30:23;;;;;;;;;7.33;7.00;;;;;27.64;43.73;101096.16;146606;594;46019;-83
2021/09/22 09:32:57;;;;;;;;;8.00;7.00;;;;;27.54;44.13;101094.50;146611;577;46008;-85
2021/09/22 09:35:30;;;;;;;;;8.00;6.00;;;;;27.48;43.99;101082.16;146606;639;46018;-85
2021/09/22 09:38:04;;;;;;;;;8.33;5.67;;;;;27.62;43.76;101081.97;146607;564;46018;-84
2021/09/22 09:40:40;;;;;;;;;5.00;5.00;;;;;27.71;43.83;101108.47;146609;667;45916;-87
2021/09/22 09:43:14;;;;;;;;;8.67;8.33;;;;;27.72;43.55;101080.06;146606;564;45019;-82
2021/09/22 09:45:49;;;;;;;;;8.67;8.00;;;;;27.64;44.43;101075.72;146609;617;46010;-75
2021/09/22 09:48:24;;;;;;;;;7.50;7.50;;;;;27.77;44.07;101070.22;146609;646;46008;-75
2021/09/22 09:51:03;;;;;;;;;8.67;7.33;;;;;27.96;43.13;101077.06;146606;564;46011;-75
2021/09/22 09:53:38;;;;;;;;;7.67;7.67;;;;;28.14;42.83;101073.25;146605;573;46018;-78
2021/09/22 09:56:23;;;;;;;;;7.00;7.00;;;;;28.25;41.84;101057.94;146607;575;46018;-76
2021/09/22 09:59:02;;;;;;;;;7.67;6.67;;;;;28.26;42.16;101061.50;146607;619;46019;-75
2021/09/22 10:01:58;;;;;;;;;8.33;7.00;;;;;28.28;42.33;101057.87;146607;582;46018;-76
2021/09/22 10:04:32;;;;;;;;;7.25;6.25;;;;;28.38;41.71;101047.06;146607;676;47010;-75
2021/09/22 10:07:06;;;;;;;;;7.00;7.00;;;;;28.45;40.74;101044.31;146606;565;46018;-77
2021/09/22 10:09:44;;;;;;;;;7.00;6.00;;;;;28.56;41.23;101030.78;146606;614;47006;-73
2021/09/22 10:12:20;;;;;;;;;7.00;7.00;;;;;28.65;40.90;101035.06;146604;649;47916;-74
2021/09/22 10:14:56;;;;;;;;;6.25;6.00;;;;;28.67;40.64;101034.13;146607;624;46018;-74
2021/09/22 10:17:33;;;;;;;;;8.00;7.67;;;;;28.76;40.55;101033.09;146606;627;46018;-76
2021/09/22 10:20:08;;;;;;;;;7.67;7.67;;;;;28.80;40.44;101024.09;146609;591;46018;-75
2021/09/22 10:22:42;;;;;;;;;8.00;6.33;;;;;28.91;40.02;101016.78;146606;580;46018;-74
2021/09/22 10:25:17;;;;;;;;;7.25;7.25;;;;;29.05;39.49;101019.19;146610;593;45018;-74
2021/09/22 10:27:53;;;;;;;;;8.33;8.33;;;;;29.16;39.16;101022.53;146607;632;46010;-74
2021/09/22 10:30:48;;;;;;;;;8.33;7.33;;;;;29.23;39.59;101012.59;146611;597;46008;-77
2021/09/22 10:33:33;;;;;;;;;8.00;7.00;;;;;29.25;39.49;101013.41;146607;584;46018;-68
2021/09/22 10:36:10;;;;;;;;;7.33;7.33;;;;;29.25;39.29;101000.06;146604;598;46010;-71
2021/09/22 10:38:52;;;;;;;;;7.00;7.00;;;;;29.29;38.90;100991.09;146605;646;47010;-65
2021/09/22 10:41:32;;;;;;;;;8.67;7.00;;;;;29.26;38.93;101001.84;146606;564;46018;-73
2021/09/22 10:44:08;;;;;;;;;8.00;8.00;;;;;29.23;39.22;100985.87;146602;614;47021;-71
2021/09/22 10:46:43;;;;;;;;;9.00;8.75;;;;;29.26;38.85;100984.94;146607;564;46018;-68
2021/09/22 10:49:17;;;;;;;;;6.75;6.75;;;;;29.30;38.28;100986.63;146604;570;46019;-72
2021/09/22 10:51:53;;;;;;;;;7.00;6.00;;;;;29.17;38.54;100970.00;146607;616;46018;-72
2021/09/22 10:54:27;;;;;;;;;7.67;6.67;;;;;29.15;38.73;100987.84;146606;581;46018;-73
2021/09/22 10:57:06;;;;;;;;;10.00;9.00;;;;;29.06;39.58;100972.87;146611;593;46018;-72
2021/09/22 10:59:44;;;;;;;;;10.00;9.00;;;;;29.01;39.12;100985.47;146605;566;46027;-71
2021/09/22 11:02:18;;;;;;;;;8.75;8.75;;;;;28.92;39.79;100985.63;146607;563;46006;-72
2021/09/22 11:05:03;;;;;;;;;8.67;7.67;;;;;28.87;39.73;100984.81;146606;603;46019;-72
2021/09/22 11:08:08;;;;;;;;;8.25;8.25;;;;;27.94;40.13;100820.34;146607;589;46018;-71
2021/09/22 11:10:56;;;;;;;;;4.00;4.00;;;;;28.81;39.84;100968.94;146606;605;46018;-70
2021/09/22 11:13:38;;;;;;;;;7.00;6.67;;;;;28.61;40.48;100988.91;146608;606;46010;-70
2021/09/22 11:16:18;;;;;;;;;6.00;6.00;;;;;28.48;40.24;100972.25;146604;636;47916;-73
2021/09/22 11:18:57;;;;;;;;;8.33;8.00;;;;;28.38;40.35;100972.37;146606;644;46020;-71
2021/09/22 11:21:31;;;;;;;;;7.67;7.67;;;;;28.36;40.93;100964.44;146606;575;46018;-71
2021/09/22 11:24:15;;;;;;;;;7.00;7.00;;;;;28.29;40.99;100953.00;146609;621;46018;-70
2021/09/22 11:26:57;;;;;;;;;7.67;7.67;;;;;28.03;41.01;100956.13;146606;569;46018;-72
2021/09/22 11:29:57;;;;;;;;;8.33;7.33;;;;;27.96;41.81;100945.59;146606;604;46018;-71
2021/09/22 11:32:51;;;;;;;;;8.25;7.00;;;;;27.06;41.32;100788.97;146606;601;47010;-71
2021/09/22 11:35:25;;;;;;;;;9.00;7.00;;;;;27.99;41.47;100942.88;146610;577;45024;-71
2021/09/22 11:38:01;;;;;;;;;9.00;8.00;;;;;27.90;41.02;100930.59;146607;569;46010;-71
2021/09/22 11:40:39;;;;;;;;;7.75;7.25;;;;;27.80;41.80;100936.97;146610;571;46018;-71
2021/09/22 11:43:21;;;;;;;;;7.75;6.25;;;;;27.74;41.93;100923.72;146605;643;46019;-71
2021/09/22 11:45:59;;;;;;;;;6.67;6.67;;;;;27.76;42.22;100908.59;146610;569;46018;-71
2021/09/22 11:48:39;;;;;;;;;7.25;7.25;;;;;27.63;40.87;100905.25;146604;648;46022;-71
2021/09/22 11:51:16;;;;;;;;;9.00;9.00;;;;;27.46;41.89;100904.66;146608;708;46010;-72
2021/09/22 11:53:50;;;;;;;;;10.00;5.00;;;;;27.23;42.04;100897.87;146606;602;46018;-71
2021/09/22 11:56:27;;;;;;;;;10.50;7.50;;;;;27.10;42.28;100901.56;146605;644;46019;-72
2021/09/22 11:59:00;;;;;;;;;9.25;7.00;;;;;26.94;42.75;100880.50;146606;632;46019;-71